sensor_id;sensor_type;location;lat;lon;timestamp;P1;durP1;ratioP1;P2;durP2;ratioP2
25639;SDS011;13497;48.322;16.204;2024-03-06T00:02:25;26.98;;;18.10;;
25639;SDS011;13497;48.322;16.204;2024-03-06T00:04:51;26.10;;;16.77;;
25639;SDS011;13497;48.322;16.204;2024-03-06T00:07:17;24.77;;;16.77;;
25639;SDS011;13497;48.322;16.204;2024-03-06T00:09:42;33.65;;;17.10;;
25639;SDS011;13497;48.322;16.204;2024-03-06T00:12:08;24.80;;;15.88;;
25639;SDS011;13497;48.322;16.204;2024-03-06T00:14:33;23.23;;;15.27;;
25639;SDS011;13497;48.322;16.204;2024-03-06T00:17:01;23.77;;;15.45;;
25639;SDS011;13497;48.322;16.204;2024-03-06T00:19:29;27.48;;;16.20;;
25639;SDS011;13497;48.322;16.204;2024-03-06T00:21:56;25.90;;;15.70;;
25639;SDS011;13497;48.322;16.204;2024-03-06T00:24:21;28.27;;;16.98;;
25639;SDS011;13497;48.322;16.204;2024-03-06T00:26:48;25.15;;;16.73;;
25639;SDS011;13497;48.322;16.204;2024-03-06T00:29:13;28.38;;;16.35;;
25639;SDS011;13497;48.322;16.204;2024-03-06T00:31:43;29.58;;;17.48;;
25639;SDS011;13497;48.322;16.204;2024-03-06T00:34:10;29.38;;;18.48;;
25639;SDS011;13497;48.322;16.204;2024-03-06T00:36:39;28.65;;;18.30;;
25639;SDS011;13497;48.322;16.204;2024-03-06T00:39:05;26.80;;;16.50;;
25639;SDS011;13497;48.322;16.204;2024-03-06T00:41:33;27.98;;;15.60;;
25639;SDS011;13497;48.322;16.204;2024-03-06T00:43:59;31.00;;;17.45;;
25639;SDS011;13497;48.322;16.204;2024-03-06T00:46:25;32.63;;;20.30;;
25639;SDS011;13497;48.322;16.204;2024-03-06T00:48:51;27.30;;;16.17;;
25639;SDS011;13497;48.322;16.204;2024-03-06T00:51:16;27.42;;;17.10;;
25639;SDS011;13497;48.322;16.204;2024-03-06T00:53:42;29.05;;;20.38;;
25639;SDS011;13497;48.322;16.204;2024-03-06T00:56:09;27.25;;;16.63;;
25639;SDS011;13497;48.322;16.204;2024-03-06T00:58:35;25.45;;;18.50;;
25639;SDS011;13497;48.322;16.204;2024-03-06T01:01:00;29.35;;;18.92;;
25639;SDS011;13497;48.322;16.204;2024-03-06T01:03:26;28.63;;;19.92;;
25639;SDS011;13497;48.322;16.204;2024-03-06T01:05:51;29.23;;;16.98;;
25639;SDS011;13497;48.322;16.204;2024-03-06T01:08:18;25.88;;;17.67;;
25639;SDS011;13497;48.322;16.204;2024-03-06T01:10:44;22.17;;;15.40;;
25639;SDS011;13497;48.322;16.204;2024-03-06T01:13:10;26.80;;;15.85;;
25639;SDS011;13497;48.322;16.204;2024-03-06T01:15:36;25.80;;;16.45;;
25639;SDS011;13497;48.322;16.204;2024-03-06T01:18:02;25.45;;;15.75;;
25639;SDS011;13497;48.322;16.204;2024-03-06T01:20:28;26.83;;;17.23;;
25639;SDS011;13497;48.322;16.204;2024-03-06T01:22:54;26.20;;;17.60;;
25639;SDS011;13497;48.322;16.204;2024-03-06T01:25:20;27.95;;;17.42;;
25639;SDS011;13497;48.322;16.204;2024-03-06T01:27:47;27.05;;;17.10;;
25639;SDS011;13497;48.322;16.204;2024-03-06T01:30:14;29.17;;;17.13;;
25639;SDS011;13497;48.322;16.204;2024-03-06T01:32:40;26.38;;;16.45;;
25639;SDS011;13497;48.322;16.204;2024-03-06T01:35:06;36.05;;;18.88;;
25639;SDS011;13497;48.322;16.204;2024-03-06T01:37:32;29.95;;;16.42;;
25639;SDS011;13497;48.322;16.204;2024-03-06T01:39:58;25.20;;;15.90;;
25639;SDS011;13497;48.322;16.204;2024-03-06T01:42:23;26.83;;;16.35;;
25639;SDS011;13497;48.322;16.204;2024-03-06T01:44:49;25.10;;;17.40;;
25639;SDS011;13497;48.322;16.204;2024-03-06T01:47:15;26.40;;;15.25;;
25639;SDS011;13497;48.322;16.204;2024-03-06T01:49:41;23.27;;;16.05;;
25639;SDS011;13497;48.322;16.204;2024-03-06T01:52:08;29.67;;;25.88;;
25639;SDS011;13497;48.322;16.204;2024-03-06T01:54:37;26.88;;;16.27;;
25639;SDS011;13497;48.322;16.204;2024-03-06T01:57:03;29.52;;;17.33;;
25639;SDS011;13497;48.322;16.204;2024-03-06T01:59:31;35.42;;;22.63;;
25639;SDS011;13497;48.322;16.204;2024-03-06T02:01:57;29.58;;;19.52;;
25639;SDS011;13497;48.322;16.204;2024-03-06T02:04:23;25.42;;;16.35;;
25639;SDS011;13497;48.322;16.204;2024-03-06T02:06:53;28.38;;;17.35;;
25639;SDS011;13497;48.322;16.204;2024-03-06T02:09:19;30.02;;;17.00;;
25639;SDS011;13497;48.322;16.204;2024-03-06T02:11:45;30.67;;;19.50;;
25639;SDS011;13497;48.322;16.204;2024-03-06T02:14:11;32.50;;;20.30;;
25639;SDS011;13497;48.322;16.204;2024-03-06T02:16:37;33.67;;;18.85;;
25639;SDS011;13497;48.322;16.204;2024-03-06T02:19:06;32.67;;;21.13;;
25639;SDS011;13497;48.322;16.204;2024-03-06T02:21:33;34.47;;;20.75;;
25639;SDS011;13497;48.322;16.204;2024-03-06T02:23:59;30.05;;;20.55;;
25639;SDS011;13497;48.322;16.204;2024-03-06T02:26:24;35.58;;;23.17;;
25639;SDS011;13497;48.322;16.204;2024-03-06T02:28:54;36.53;;;21.58;;
25639;SDS011;13497;48.322;16.204;2024-03-06T02:31:20;37.35;;;22.40;;
25639;SDS011;13497;48.322;16.204;2024-03-06T02:33:48;38.75;;;22.48;;
25639;SDS011;13497;48.322;16.204;2024-03-06T02:36:14;37.92;;;20.80;;
25639;SDS011;13497;48.322;16.204;2024-03-06T02:38:41;35.53;;;22.10;;
25639;SDS011;13497;48.322;16.204;2024-03-06T02:41:08;39.67;;;24.48;;
25639;SDS011;13497;48.322;16.204;2024-03-06T02:43:34;38.00;;;25.10;;
25639;SDS011;13497;48.322;16.204;2024-03-06T02:46:00;44.28;;;25.40;;
25639;SDS011;13497;48.322;16.204;2024-03-06T02:48:26;39.58;;;22.52;;
25639;SDS011;13497;48.322;16.204;2024-03-06T02:50:51;43.85;;;23.85;;
25639;SDS011;13497;48.322;16.204;2024-03-06T02:53:17;39.40;;;22.65;;
25639;SDS011;13497;48.322;16.204;2024-03-06T02:55:43;39.35;;;22.45;;
25639;SDS011;13497;48.322;16.204;2024-03-06T02:58:08;37.78;;;25.33;;
25639;SDS011;13497;48.322;16.204;2024-03-06T03:00:34;40.28;;;24.73;;
25639;SDS011;13497;48.322;16.204;2024-03-06T03:03:00;44.25;;;23.67;;
25639;SDS011;13497;48.322;16.204;2024-03-06T03:05:26;41.55;;;24.20;;
25639;SDS011;13497;48.322;16.204;2024-03-06T03:07:51;39.95;;;24.02;;
25639;SDS011;13497;48.322;16.204;2024-03-06T03:10:17;41.88;;;23.77;;
25639;SDS011;13497;48.322;16.204;2024-03-06T03:12:43;41.40;;;24.75;;
25639;SDS011;13497;48.322;16.204;2024-03-06T03:15:09;39.20;;;26.60;;
25639;SDS011;13497;48.322;16.204;2024-03-06T03:17:35;45.13;;;25.77;;
25639;SDS011;13497;48.322;16.204;2024-03-06T03:20:04;46.00;;;23.42;;
25639;SDS011;13497;48.322;16.204;2024-03-06T03:22:42;44.05;;;28.10;;
25639;SDS011;13497;48.322;16.204;2024-03-06T03:25:11;47.28;;;27.88;;
25639;SDS011;13497;48.322;16.204;2024-03-06T03:27:38;49.72;;;26.88;;
25639;SDS011;13497;48.322;16.204;2024-03-06T03:30:12;50.88;;;27.05;;
25639;SDS011;13497;48.322;16.204;2024-03-06T03:32:38;43.63;;;26.48;;
25639;SDS011;13497;48.322;16.204;2024-03-06T03:35:07;45.45;;;28.17;;
25639;SDS011;13497;48.322;16.204;2024-03-06T03:37:33;47.20;;;25.67;;
25639;SDS011;13497;48.322;16.204;2024-03-06T03:39:59;52.20;;;26.73;;
25639;SDS011;13497;48.322;16.204;2024-03-06T03:42:24;50.88;;;36.33;;
25639;SDS011;13497;48.322;16.204;2024-03-06T03:44:50;43.60;;;27.67;;
25639;SDS011;13497;48.322;16.204;2024-03-06T03:47:16;46.92;;;26.48;;
25639;SDS011;13497;48.322;16.204;2024-03-06T03:49:42;52.88;;;30.17;;
25639;SDS011;13497;48.322;16.204;2024-03-06T03:52:08;50.03;;;28.77;;
25639;SDS011;13497;48.322;16.204;2024-03-06T03:54:33;47.83;;;27.95;;
25639;SDS011;13497;48.322;16.204;2024-03-06T03:57:00;48.28;;;28.25;;
25639;SDS011;13497;48.322;16.204;2024-03-06T03:59:26;45.90;;;25.98;;
25639;SDS011;13497;48.322;16.204;2024-03-06T04:01:52;42.33;;;25.90;;
25639;SDS011;13497;48.322;16.204;2024-03-06T04:04:17;42.35;;;31.20;;
25639;SDS011;13497;48.322;16.204;2024-03-06T04:06:43;39.38;;;23.50;;
25639;SDS011;13497;48.322;16.204;2024-03-06T04:09:10;44.45;;;26.05;;
25639;SDS011;13497;48.322;16.204;2024-03-06T04:11:36;38.30;;;23.88;;
25639;SDS011;13497;48.322;16.204;2024-03-06T04:14:03;39.47;;;24.92;;
25639;SDS011;13497;48.322;16.204;2024-03-06T04:16:29;42.35;;;25.38;;
25639;SDS011;13497;48.322;16.204;2024-03-06T04:18:54;40.33;;;23.52;;
25639;SDS011;13497;48.322;16.204;2024-03-06T04:21:20;35.20;;;21.08;;
25639;SDS011;13497;48.322;16.204;2024-03-06T04:23:47;41.40;;;24.10;;
25639;SDS011;13497;48.322;16.204;2024-03-06T04:26:13;35.25;;;22.38;;
25639;SDS011;13497;48.322;16.204;2024-03-06T04:28:39;38.45;;;22.23;;
25639;SDS011;13497;48.322;16.204;2024-03-06T04:31:04;42.10;;;24.30;;
25639;SDS011;13497;48.322;16.204;2024-03-06T04:33:30;39.28;;;29.77;;
25639;SDS011;13497;48.322;16.204;2024-03-06T04:35:56;41.22;;;25.17;;
25639;SDS011;13497;48.322;16.204;2024-03-06T04:38:21;36.97;;;23.42;;
25639;SDS011;13497;48.322;16.204;2024-03-06T04:40:47;38.10;;;23.35;;
25639;SDS011;13497;48.322;16.204;2024-03-06T04:43:13;38.83;;;23.02;;
25639;SDS011;13497;48.322;16.204;2024-03-06T04:45:38;37.25;;;19.92;;
25639;SDS011;13497;48.322;16.204;2024-03-06T04:48:04;42.38;;;22.02;;
25639;SDS011;13497;48.322;16.204;2024-03-06T04:50:31;41.03;;;24.42;;
25639;SDS011;13497;48.322;16.204;2024-03-06T04:52:57;40.03;;;29.23;;
25639;SDS011;13497;48.322;16.204;2024-03-06T04:55:23;35.90;;;21.80;;
25639;SDS011;13497;48.322;16.204;2024-03-06T04:57:50;35.72;;;19.70;;
25639;SDS011;13497;48.322;16.204;2024-03-06T05:00:17;35.38;;;21.55;;
25639;SDS011;13497;48.322;16.204;2024-03-06T05:02:43;41.58;;;21.98;;
25639;SDS011;13497;48.322;16.204;2024-03-06T05:05:09;38.92;;;22.38;;
25639;SDS011;13497;48.322;16.204;2024-03-06T05:07:34;34.97;;;22.48;;
25639;SDS011;13497;48.322;16.204;2024-03-06T05:10:00;36.38;;;23.33;;
25639;SDS011;13497;48.322;16.204;2024-03-06T05:12:26;40.15;;;21.52;;
25639;SDS011;13497;48.322;16.204;2024-03-06T05:14:53;39.83;;;27.15;;
25639;SDS011;13497;48.322;16.204;2024-03-06T05:17:20;35.50;;;21.08;;
25639;SDS011;13497;48.322;16.204;2024-03-06T05:19:46;38.72;;;19.92;;
25639;SDS011;13497;48.322;16.204;2024-03-06T05:22:13;33.50;;;19.73;;
25639;SDS011;13497;48.322;16.204;2024-03-06T05:24:39;37.92;;;23.08;;
25639;SDS011;13497;48.322;16.204;2024-03-06T05:27:05;40.95;;;20.52;;
25639;SDS011;13497;48.322;16.204;2024-03-06T05:29:31;29.95;;;18.42;;
25639;SDS011;13497;48.322;16.204;2024-03-06T05:31:56;38.42;;;33.00;;
25639;SDS011;13497;48.322;16.204;2024-03-06T05:34:22;35.22;;;19.67;;
25639;SDS011;13497;48.322;16.204;2024-03-06T05:36:48;36.95;;;20.58;;
25639;SDS011;13497;48.322;16.204;2024-03-06T05:39:14;33.03;;;19.13;;
25639;SDS011;13497;48.322;16.204;2024-03-06T05:41:40;37.05;;;19.33;;
25639;SDS011;13497;48.322;16.204;2024-03-06T05:46:32;37.97;;;20.13;;
25639;SDS011;13497;48.322;16.204;2024-03-06T05:48:58;37.42;;;20.65;;
25639;SDS011;13497;48.322;16.204;2024-03-06T05:51:24;35.22;;;19.38;;
25639;SDS011;13497;48.322;16.204;2024-03-06T05:53:49;39.88;;;19.38;;
25639;SDS011;13497;48.322;16.204;2024-03-06T05:56:18;36.63;;;19.17;;
25639;SDS011;13497;48.322;16.204;2024-03-06T05:58:43;30.30;;;19.13;;
25639;SDS011;13497;48.322;16.204;2024-03-06T06:01:15;33.72;;;18.67;;
25639;SDS011;13497;48.322;16.204;2024-03-06T06:03:45;36.67;;;18.90;;
25639;SDS011;13497;48.322;16.204;2024-03-06T06:06:17;38.35;;;20.10;;
25639;SDS011;13497;48.322;16.204;2024-03-06T06:08:46;38.80;;;22.33;;
25639;SDS011;13497;48.322;16.204;2024-03-06T06:11:11;42.22;;;20.15;;
25639;SDS011;13497;48.322;16.204;2024-03-06T06:13:38;32.45;;;21.45;;
25639;SDS011;13497;48.322;16.204;2024-03-06T06:16:07;33.20;;;21.30;;
25639;SDS011;13497;48.322;16.204;2024-03-06T06:18:32;35.58;;;18.48;;
25639;SDS011;13497;48.322;16.204;2024-03-06T06:20:58;43.45;;;18.67;;
25639;SDS011;13497;48.322;16.204;2024-03-06T06:23:24;36.15;;;19.02;;
25639;SDS011;13497;48.322;16.204;2024-03-06T06:25:50;34.90;;;18.92;;
25639;SDS011;13497;48.322;16.204;2024-03-06T06:28:16;34.92;;;19.73;;
25639;SDS011;13497;48.322;16.204;2024-03-06T06:30:42;30.45;;;18.30;;
25639;SDS011;13497;48.322;16.204;2024-03-06T06:33:08;31.98;;;19.95;;
25639;SDS011;13497;48.322;16.204;2024-03-06T06:35:34;36.75;;;17.08;;
25639;SDS011;13497;48.322;16.204;2024-03-06T06:38:00;32.33;;;18.23;;
25639;SDS011;13497;48.322;16.204;2024-03-06T06:40:26;31.23;;;19.17;;
25639;SDS011;13497;48.322;16.204;2024-03-06T06:42:53;39.97;;;19.67;;
25639;SDS011;13497;48.322;16.204;2024-03-06T06:45:20;30.45;;;17.42;;
25639;SDS011;13497;48.322;16.204;2024-03-06T06:47:47;35.70;;;20.33;;
25639;SDS011;13497;48.322;16.204;2024-03-06T06:50:14;32.67;;;21.38;;
25639;SDS011;13497;48.322;16.204;2024-03-06T06:52:40;46.13;;;28.20;;
25639;SDS011;13497;48.322;16.204;2024-03-06T06:55:09;31.65;;;17.77;;
25639;SDS011;13497;48.322;16.204;2024-03-06T06:57:36;33.92;;;19.92;;
25639;SDS011;13497;48.322;16.204;2024-03-06T07:00:02;30.73;;;17.17;;
25639;SDS011;13497;48.322;16.204;2024-03-06T07:05:05;30.95;;;16.05;;
25639;SDS011;13497;48.322;16.204;2024-03-06T07:07:31;38.83;;;18.33;;
25639;SDS011;13497;48.322;16.204;2024-03-06T07:09:56;34.03;;;16.90;;
25639;SDS011;13497;48.322;16.204;2024-03-06T07:12:22;32.97;;;18.73;;
25639;SDS011;13497;48.322;16.204;2024-03-06T07:14:48;32.80;;;19.17;;
25639;SDS011;13497;48.322;16.204;2024-03-06T07:17:13;55.58;;;20.23;;
25639;SDS011;13497;48.322;16.204;2024-03-06T07:19:39;40.95;;;19.83;;
25639;SDS011;13497;48.322;16.204;2024-03-06T07:22:05;32.35;;;18.25;;
25639;SDS011;13497;48.322;16.204;2024-03-06T07:24:31;33.80;;;18.38;;
25639;SDS011;13497;48.322;16.204;2024-03-06T07:26:56;31.85;;;17.35;;
25639;SDS011;13497;48.322;16.204;2024-03-06T07:29:22;32.20;;;18.10;;
25639;SDS011;13497;48.322;16.204;2024-03-06T07:31:48;34.58;;;22.25;;
25639;SDS011;13497;48.322;16.204;2024-03-06T07:34:13;35.75;;;17.95;;
25639;SDS011;13497;48.322;16.204;2024-03-06T07:36:39;29.27;;;18.98;;
25639;SDS011;13497;48.322;16.204;2024-03-06T07:39:05;30.38;;;18.92;;
25639;SDS011;13497;48.322;16.204;2024-03-06T07:41:32;33.42;;;22.30;;
25639;SDS011;13497;48.322;16.204;2024-03-06T07:43:58;34.35;;;18.92;;
25639;SDS011;13497;48.322;16.204;2024-03-06T07:46:25;28.83;;;18.17;;
25639;SDS011;13497;48.322;16.204;2024-03-06T07:48:51;29.20;;;17.60;;
25639;SDS011;13497;48.322;16.204;2024-03-06T07:51:17;30.13;;;16.38;;
25639;SDS011;13497;48.322;16.204;2024-03-06T07:53:42;35.65;;;18.65;;
25639;SDS011;13497;48.322;16.204;2024-03-06T07:56:11;28.23;;;19.10;;
25639;SDS011;13497;48.322;16.204;2024-03-06T07:58:38;30.48;;;17.52;;
25639;SDS011;13497;48.322;16.204;2024-03-06T08:01:05;29.83;;;16.85;;
25639;SDS011;13497;48.322;16.204;2024-03-06T08:03:32;32.30;;;19.38;;
25639;SDS011;13497;48.322;16.204;2024-03-06T08:05:59;31.17;;;18.38;;
25639;SDS011;13497;48.322;16.204;2024-03-06T08:08:25;32.33;;;19.52;;
25639;SDS011;13497;48.322;16.204;2024-03-06T08:10:51;28.95;;;17.63;;
25639;SDS011;13497;48.322;16.204;2024-03-06T08:13:16;32.90;;;19.23;;
25639;SDS011;13497;48.322;16.204;2024-03-06T08:15:44;34.10;;;19.88;;
25639;SDS011;13497;48.322;16.204;2024-03-06T08:18:09;33.20;;;19.77;;
25639;SDS011;13497;48.322;16.204;2024-03-06T08:20:36;35.10;;;22.15;;
25639;SDS011;13497;48.322;16.204;2024-03-06T08:23:02;37.08;;;20.20;;
25639;SDS011;13497;48.322;16.204;2024-03-06T08:25:28;32.47;;;21.02;;
25639;SDS011;13497;48.322;16.204;2024-03-06T08:27:54;31.33;;;17.00;;
25639;SDS011;13497;48.322;16.204;2024-03-06T08:30:19;33.25;;;18.90;;
25639;SDS011;13497;48.322;16.204;2024-03-06T08:32:45;32.53;;;20.17;;
25639;SDS011;13497;48.322;16.204;2024-03-06T08:35:11;32.72;;;19.15;;
25639;SDS011;13497;48.322;16.204;2024-03-06T08:37:38;34.10;;;20.50;;
25639;SDS011;13497;48.322;16.204;2024-03-06T08:40:07;30.35;;;20.35;;
25639;SDS011;13497;48.322;16.204;2024-03-06T08:42:43;33.20;;;18.77;;
25639;SDS011;13497;48.322;16.204;2024-03-06T08:45:09;33.95;;;19.70;;
25639;SDS011;13497;48.322;16.204;2024-03-06T08:47:35;34.85;;;20.25;;
25639;SDS011;13497;48.322;16.204;2024-03-06T08:50:01;29.48;;;18.17;;
25639;SDS011;13497;48.322;16.204;2024-03-06T08:52:27;30.23;;;18.63;;
25639;SDS011;13497;48.322;16.204;2024-03-06T08:54:53;31.23;;;20.40;;
25639;SDS011;13497;48.322;16.204;2024-03-06T08:57:19;35.85;;;26.98;;
25639;SDS011;13497;48.322;16.204;2024-03-06T08:59:49;31.08;;;18.75;;
25639;SDS011;13497;48.322;16.204;2024-03-06T09:02:15;29.20;;;19.15;;
25639;SDS011;13497;48.322;16.204;2024-03-06T09:04:43;32.88;;;18.30;;
25639;SDS011;13497;48.322;16.204;2024-03-06T09:07:10;30.70;;;19.88;;
25639;SDS011;13497;48.322;16.204;2024-03-06T09:09:36;28.58;;;20.45;;
25639;SDS011;13497;48.322;16.204;2024-03-06T09:12:06;30.88;;;18.77;;
25639;SDS011;13497;48.322;16.204;2024-03-06T09:14:35;31.65;;;17.23;;
25639;SDS011;13497;48.322;16.204;2024-03-06T09:19:28;28.45;;;17.38;;
25639;SDS011;13497;48.322;16.204;2024-03-06T09:21:54;29.50;;;22.75;;
25639;SDS011;13497;48.322;16.204;2024-03-06T09:24:22;26.17;;;16.42;;
25639;SDS011;13497;48.322;16.204;2024-03-06T09:26:50;28.92;;;16.98;;
25639;SDS011;13497;48.322;16.204;2024-03-06T09:29:16;30.30;;;16.58;;
25639;SDS011;13497;48.322;16.204;2024-03-06T09:31:42;26.33;;;17.77;;
25639;SDS011;13497;48.322;16.204;2024-03-06T09:34:08;27.55;;;17.15;;
25639;SDS011;13497;48.322;16.204;2024-03-06T09:36:40;27.58;;;17.27;;
25639;SDS011;13497;48.322;16.204;2024-03-06T09:39:13;28.13;;;14.98;;
25639;SDS011;13497;48.322;16.204;2024-03-06T09:41:43;25.65;;;14.65;;
25639;SDS011;13497;48.322;16.204;2024-03-06T09:44:10;28.10;;;16.17;;
25639;SDS011;13497;48.322;16.204;2024-03-06T09:46:36;24.73;;;14.73;;
25639;SDS011;13497;48.322;16.204;2024-03-06T09:49:02;27.38;;;15.10;;
25639;SDS011;13497;48.322;16.204;2024-03-06T09:51:29;23.30;;;14.60;;
25639;SDS011;13497;48.322;16.204;2024-03-06T09:53:55;24.17;;;13.50;;
25639;SDS011;13497;48.322;16.204;2024-03-06T09:56:21;21.92;;;13.75;;
25639;SDS011;13497;48.322;16.204;2024-03-06T09:58:47;21.45;;;12.60;;
25639;SDS011;13497;48.322;16.204;2024-03-06T10:01:13;23.40;;;12.63;;
25639;SDS011;13497;48.322;16.204;2024-03-06T10:03:39;19.30;;;11.60;;
25639;SDS011;13497;48.322;16.204;2024-03-06T10:06:06;19.85;;;12.93;;
25639;SDS011;13497;48.322;16.204;2024-03-06T10:08:32;19.40;;;11.27;;
25639;SDS011;13497;48.322;16.204;2024-03-06T10:10:58;23.52;;;12.85;;
25639;SDS011;13497;48.322;16.204;2024-03-06T10:13:25;21.65;;;13.05;;
25639;SDS011;13497;48.322;16.204;2024-03-06T10:15:57;24.80;;;13.35;;
25639;SDS011;13497;48.322;16.204;2024-03-06T10:18:27;21.50;;;11.80;;
25639;SDS011;13497;48.322;16.204;2024-03-06T10:20:54;21.55;;;14.68;;
25639;SDS011;13497;48.322;16.204;2024-03-06T10:23:20;20.42;;;13.43;;
25639;SDS011;13497;48.322;16.204;2024-03-06T10:25:47;25.20;;;14.95;;
25639;SDS011;13497;48.322;16.204;2024-03-06T10:28:17;43.83;;;24.10;;
25639;SDS011;13497;48.322;16.204;2024-03-06T10:30:44;22.42;;;12.32;;
25639;SDS011;13497;48.322;16.204;2024-03-06T10:33:14;22.15;;;14.02;;
25639;SDS011;13497;48.322;16.204;2024-03-06T10:35:41;21.17;;;12.43;;
25639;SDS011;13497;48.322;16.204;2024-03-06T10:38:08;23.85;;;12.40;;
25639;SDS011;13497;48.322;16.204;2024-03-06T10:40:37;22.00;;;12.68;;
25639;SDS011;13497;48.322;16.204;2024-03-06T10:43:05;23.27;;;14.93;;
25639;SDS011;13497;48.322;16.204;2024-03-06T10:48:19;27.27;;;22.13;;
25639;SDS011;13497;48.322;16.204;2024-03-06T10:50:46;21.77;;;14.15;;
25639;SDS011;13497;48.322;16.204;2024-03-06T10:53:14;21.98;;;13.43;;
25639;SDS011;13497;48.322;16.204;2024-03-06T10:55:43;26.63;;;14.77;;
25639;SDS011;13497;48.322;16.204;2024-03-06T10:58:12;21.15;;;12.82;;
25639;SDS011;13497;48.322;16.204;2024-03-06T11:00:39;21.85;;;11.70;;
25639;SDS011;13497;48.322;16.204;2024-03-06T11:03:06;20.55;;;14.27;;
25639;SDS011;13497;48.322;16.204;2024-03-06T11:05:36;23.42;;;14.57;;
25639;SDS011;13497;48.322;16.204;2024-03-06T11:08:05;22.02;;;13.82;;
25639;SDS011;13497;48.322;16.204;2024-03-06T11:10:36;20.38;;;14.05;;
25639;SDS011;13497;48.322;16.204;2024-03-06T11:13:03;22.98;;;13.85;;
25639;SDS011;13497;48.322;16.204;2024-03-06T11:15:33;26.10;;;14.30;;
25639;SDS011;13497;48.322;16.204;2024-03-06T11:18:18;25.05;;;14.23;;
25639;SDS011;13497;48.322;16.204;2024-03-06T11:23:28;26.83;;;16.52;;
25639;SDS011;13497;48.322;16.204;2024-03-06T11:28:31;21.23;;;13.55;;
25639;SDS011;13497;48.322;16.204;2024-03-06T11:31:02;23.15;;;14.68;;
25639;SDS011;13497;48.322;16.204;2024-03-06T11:33:39;23.73;;;15.15;;
25639;SDS011;13497;48.322;16.204;2024-03-06T11:41:46;22.25;;;15.35;;
25639;SDS011;13497;48.322;16.204;2024-03-06T11:44:14;19.75;;;11.88;;
25639;SDS011;13497;48.322;16.204;2024-03-06T11:49:16;21.52;;;14.57;;
25639;SDS011;13497;48.322;16.204;2024-03-06T11:51:46;24.77;;;16.45;;
25639;SDS011;13497;48.322;16.204;2024-03-06T11:54:13;28.85;;;17.05;;
25639;SDS011;13497;48.322;16.204;2024-03-06T11:56:40;29.27;;;16.35;;
25639;SDS011;13497;48.322;16.204;2024-03-06T12:01:35;26.10;;;16.23;;
25639;SDS011;13497;48.322;16.204;2024-03-06T12:04:02;26.33;;;13.85;;
25639;SDS011;13497;48.322;16.204;2024-03-06T12:06:32;25.35;;;14.57;;
25639;SDS011;13497;48.322;16.204;2024-03-06T12:08:58;23.73;;;14.20;;
25639;SDS011;13497;48.322;16.204;2024-03-06T12:11:25;22.77;;;14.05;;
25639;SDS011;13497;48.322;16.204;2024-03-06T12:13:51;24.95;;;13.02;;
25639;SDS011;13497;48.322;16.204;2024-03-06T12:16:17;24.05;;;15.52;;
25639;SDS011;13497;48.322;16.204;2024-03-06T12:18:43;23.48;;;14.45;;
25639;SDS011;13497;48.322;16.204;2024-03-06T12:21:10;22.75;;;13.77;;
25639;SDS011;13497;48.322;16.204;2024-03-06T12:23:36;23.17;;;13.70;;
25639;SDS011;13497;48.322;16.204;2024-03-06T12:26:03;23.73;;;14.85;;
25639;SDS011;13497;48.322;16.204;2024-03-06T12:28:28;24.10;;;15.93;;
25639;SDS011;13497;48.322;16.204;2024-03-06T12:30:55;24.17;;;15.27;;
25639;SDS011;13497;48.322;16.204;2024-03-06T12:33:20;27.17;;;16.27;;
25639;SDS011;13497;48.322;16.204;2024-03-06T12:35:46;26.27;;;14.75;;
25639;SDS011;13497;48.322;16.204;2024-03-06T12:38:13;24.38;;;15.88;;
25639;SDS011;13497;48.322;16.204;2024-03-06T12:40:42;23.88;;;16.25;;
25639;SDS011;13497;48.322;16.204;2024-03-06T12:43:08;25.45;;;16.33;;
25639;SDS011;13497;48.322;16.204;2024-03-06T12:45:35;25.23;;;13.77;;
25639;SDS011;13497;48.322;16.204;2024-03-06T12:48:02;24.80;;;15.45;;
25639;SDS011;13497;48.322;16.204;2024-03-06T12:50:28;22.85;;;12.65;;
25639;SDS011;13497;48.322;16.204;2024-03-06T12:52:54;24.30;;;14.60;;
25639;SDS011;13497;48.322;16.204;2024-03-06T12:55:19;24.25;;;13.35;;
25639;SDS011;13497;48.322;16.204;2024-03-06T12:57:45;24.55;;;15.13;;
25639;SDS011;13497;48.322;16.204;2024-03-06T13:00:11;31.70;;;18.52;;
25639;SDS011;13497;48.322;16.204;2024-03-06T13:02:43;24.13;;;14.95;;
25639;SDS011;13497;48.322;16.204;2024-03-06T13:05:10;23.05;;;15.45;;
25639;SDS011;13497;48.322;16.204;2024-03-06T13:07:36;25.92;;;14.88;;
25639;SDS011;13497;48.322;16.204;2024-03-06T13:10:04;20.98;;;14.48;;
25639;SDS011;13497;48.322;16.204;2024-03-06T13:12:30;25.27;;;14.23;;
25639;SDS011;13497;48.322;16.204;2024-03-06T13:14:56;25.08;;;14.00;;
25639;SDS011;13497;48.322;16.204;2024-03-06T13:17:22;24.38;;;14.98;;
25639;SDS011;13497;48.322;16.204;2024-03-06T13:19:48;21.13;;;13.88;;
25639;SDS011;13497;48.322;16.204;2024-03-06T13:22:14;21.52;;;14.40;;
25639;SDS011;13497;48.322;16.204;2024-03-06T13:24:40;22.88;;;18.30;;
25639;SDS011;13497;48.322;16.204;2024-03-06T13:27:05;22.02;;;12.25;;
25639;SDS011;13497;48.322;16.204;2024-03-06T13:29:31;21.27;;;14.10;;
25639;SDS011;13497;48.322;16.204;2024-03-06T13:31:57;22.90;;;12.90;;
25639;SDS011;13497;48.322;16.204;2024-03-06T13:34:22;21.90;;;12.52;;
25639;SDS011;13497;48.322;16.204;2024-03-06T13:36:48;21.40;;;13.07;;
25639;SDS011;13497;48.322;16.204;2024-03-06T13:39:14;25.02;;;15.10;;
25639;SDS011;13497;48.322;16.204;2024-03-06T13:41:42;22.15;;;13.20;;
25639;SDS011;13497;48.322;16.204;2024-03-06T13:44:08;20.98;;;12.32;;
25639;SDS011;13497;48.322;16.204;2024-03-06T13:46:34;23.15;;;12.50;;
25639;SDS011;13497;48.322;16.204;2024-03-06T13:49:00;22.20;;;13.35;;
25639;SDS011;13497;48.322;16.204;2024-03-06T13:51:25;23.10;;;13.93;;
25639;SDS011;13497;48.322;16.204;2024-03-06T13:53:51;20.13;;;12.23;;
25639;SDS011;13497;48.322;16.204;2024-03-06T13:56:17;21.10;;;13.57;;
25639;SDS011;13497;48.322;16.204;2024-03-06T13:58:43;18.92;;;9.73;;
25639;SDS011;13497;48.322;16.204;2024-03-06T14:01:09;21.20;;;12.35;;
25639;SDS011;13497;48.322;16.204;2024-03-06T14:03:34;19.00;;;11.93;;
25639;SDS011;13497;48.322;16.204;2024-03-06T14:06:02;32.30;;;14.27;;
25639;SDS011;13497;48.322;16.204;2024-03-06T14:08:29;20.13;;;12.48;;
25639;SDS011;13497;48.322;16.204;2024-03-06T14:10:54;20.85;;;12.50;;
25639;SDS011;13497;48.322;16.204;2024-03-06T14:13:20;21.98;;;14.05;;
25639;SDS011;13497;48.322;16.204;2024-03-06T14:15:45;20.02;;;12.73;;
25639;SDS011;13497;48.322;16.204;2024-03-06T14:18:13;22.63;;;15.23;;
25639;SDS011;13497;48.322;16.204;2024-03-06T14:20:39;19.67;;;13.27;;
25639;SDS011;13497;48.322;16.204;2024-03-06T14:23:04;28.55;;;17.45;;
25639;SDS011;13497;48.322;16.204;2024-03-06T14:25:30;39.63;;;20.15;;
25639;SDS011;13497;48.322;16.204;2024-03-06T14:28:00;25.77;;;14.70;;
25639;SDS011;13497;48.322;16.204;2024-03-06T14:30:26;21.88;;;14.65;;
25639;SDS011;13497;48.322;16.204;2024-03-06T14:32:52;22.15;;;13.65;;